Time;durP1;ratioP1;P1;durP2;ratioP2;P2;SDS_P1;SDS_P2;PMS_P1;PMS_P2;Temp;Humidity;BMP_temperature;BMP_pressure;BME280_temperature;BME280_humidity;BME280_pressure;Samples;Min_cycle;Max_cycle;Signal;HPM_P1;HPM_P2
2023/03/02 00:02:21;;;;;;;17.85;10.18;;;;;;;;;;4939732;28;20946;-74
2023/03/02 00:04:52;;;;;;;17.42;10.80;;;;;;;;;;4941540;28;20135;-73
2023/03/02 00:07:21;;;;;;;20.27;11.95;;;;;;;;;;4942051;28;20066;-74
2023/03/02 00:09:47;;;;;;;16.35;9.30;;;;;;;;;;4939497;28;20023;-75
2023/03/02 00:12:14;;;;;;;17.98;9.80;;;;;;;;;;4943477;28;20038;-75
2023/03/02 00:14:41;;;;;;;14.77;8.60;;;;;;;;;;4946026;28;20446;-75
2023/03/02 00:17:07;;;;;;;15.00;8.35;;;;;;;;;;4943701;28;20035;-75
2023/03/02 00:19:35;;;;;;;15.45;6.15;;;;;;;;;;4945205;28;20038;-74
2023/03/02 00:22:01;;;;;;;15.00;7.25;;;;;;;;;;4943833;28;20054;-75
2023/03/02 00:24:27;;;;;;;16.33;8.15;;;;;;;;;;4946042;28;20113;-73
2023/03/02 00:26:53;;;;;;;15.35;7.25;;;;;;;;;;4944750;28;20031;-72
2023/03/02 00:29:19;;;;;;;15.05;7.50;;;;;;;;;;4941749;28;21027;-73
2023/03/02 00:31:46;;;;;;;13.93;6.65;;;;;;;;;;4945703;28;20120;-73
2023/03/02 00:34:12;;;;;;;15.05;6.88;;;;;;;;;;4939370;28;20026;-73
2023/03/02 00:36:38;;;;;;;15.20;7.45;;;;;;;;;;4942653;28;20035;-73
2023/03/02 00:39:04;;;;;;;13.35;6.50;;;;;;;;;;4941742;28;20125;-73
2023/03/02 00:41:30;;;;;;;13.50;6.10;;;;;;;;;;4944883;28;20324;-73
2023/03/02 00:43:57;;;;;;;13.88;6.47;;;;;;;;;;4943362;28;20467;-73
2023/03/02 00:46:23;;;;;;;12.27;6.03;;;;;;;;;;4947496;28;20026;-73
2023/03/02 00:48:50;;;;;;;14.05;6.95;;;;;;;;;;4950955;28;20038;-73
2023/03/02 00:51:17;;;;;;;13.73;6.60;;;;;;;;;;4943458;28;20088;-73
2023/03/02 00:53:43;;;;;;;;;;;;;;;;;;4949307;28;20495;-73
2023/03/02 00:56:09;;;;;;;14.73;7.10;;;;;;;;;;4943124;28;19914;-73
2023/03/02 00:58:35;;;;;;;;;;;;;;;;;;4943574;28;20106;-73
2023/03/02 01:01:06;;;;;;;15.27;6.88;;;;;;;;;;4945086;28;20014;-73
2023/03/02 01:03:32;;;;;;;13.73;6.38;;;;;;;;;;4939843;28;20478;-73
2023/03/02 01:05:59;;;;;;;12.55;6.32;;;;;;;;;;4945764;28;20233;-74
2023/03/02 01:08:25;;;;;;;12.88;6.28;;;;;;;;;;4942575;28;20065;-74
2023/03/02 01:10:52;;;;;;;11.98;5.80;;;;;;;;;;4943643;28;20022;-73
2023/03/02 01:13:19;;;;;;;12.30;5.50;;;;;;;;;;4935607;28;20066;-73
2023/03/02 01:15:45;;;;;;;11.70;5.75;;;;;;;;;;4944932;28;20561;-73
2023/03/02 01:18:11;;;;;;;14.35;6.80;;;;;;;;;;4942502;28;20548;-73
2023/03/02 01:20:37;;;;;;;13.73;6.80;;;;;;;;;;4943980;28;20043;-73
2023/03/02 01:23:04;;;;;;;11.85;6.25;;;;;;;;;;4943451;28;20080;-73
2023/03/02 01:25:30;;;;;;;14.02;6.90;;;;;;;;;;4938529;28;20548;-73
2023/03/02 01:27:57;;;;;;;14.30;6.30;;;;;;;;;;4952459;28;20113;-74
2023/03/02 01:30:23;;;;;;;12.35;6.25;;;;;;;;;;4948084;28;20503;-73
2023/03/02 01:32:49;;;;;;;12.35;6.13;;;;;;;;;;4946910;28;20053;-73
2023/03/02 01:35:15;;;;;;;13.18;5.85;;;;;;;;;;4948492;28;20035;-73
2023/03/02 01:37:41;;;;;;;11.68;5.55;;;;;;;;;;4951666;28;20035;-73
2023/03/02 01:40:08;;;;;;;12.52;6.18;;;;;;;;;;4942977;28;20027;-73
2023/03/02 01:42:38;;;;;;;12.07;5.97;;;;;;;;;;4948673;28;20299;-73
2023/03/02 01:45:05;;;;;;;11.00;5.35;;;;;;;;;;4943212;28;20444;-73
2023/03/02 01:47:31;;;;;;;;;;;;;;;;;;4943222;28;20035;-73
2023/03/02 01:50:00;;;;;;;12.27;5.90;;;;;;;;;;4945614;28;19973;-73
2023/03/02 01:52:28;;;;;;;11.65;5.53;;;;;;;;;;4951722;28;20262;-73
2023/03/02 01:54:57;;;;;;;13.52;6.07;;;;;;;;;;4947664;28;20062;-74
2023/03/02 01:57:25;;;;;;;13.23;5.85;;;;;;;;;;4945328;28;20487;-74
2023/03/02 01:59:54;;;;;;;12.85;6.30;;;;;;;;;;4946866;28;20035;-73
2023/03/02 02:02:20;;;;;;;13.07;6.53;;;;;;;;;;4946255;28;20035;-73
2023/03/02 02:04:47;;;;;;;12.50;5.68;;;;;;;;;;4948217;28;20046;-73
2023/03/02 02:07:13;;;;;;;13.18;5.22;;;;;;;;;;4945389;28;20034;-73
2023/03/02 02:09:40;;;;;;;12.63;6.15;;;;;;;;;;4950333;28;20051;-73
2023/03/02 02:12:12;;;;;;;13.07;6.28;;;;;;;;;;4944614;28;20129;-73
2023/03/02 02:14:38;;;;;;;12.00;5.85;;;;;;;;;;4949412;28;20391;-73
2023/03/02 02:17:05;;;;;;;13.38;5.30;;;;;;;;;;4942661;28;20031;-73
2023/03/02 02:19:40;;;;;;;12.85;5.57;;;;;;;;;;4946138;28;20041;-73
2023/03/02 02:22:06;;;;;;;13.73;5.90;;;;;;;;;;4939186;28;20026;-73
2023/03/02 02:24:36;;;;;;;11.93;5.72;;;;;;;;;;4944297;28;20031;-73
2023/03/02 02:27:02;;;;;;;10.98;5.20;;;;;;;;;;4944635;28;20027;-73
2023/03/02 02:29:37;;;;;;;11.88;4.72;;;;;;;;;;4945159;28;20564;-73
2023/03/02 02:32:08;;;;;;;10.30;4.95;;;;;;;;;;4944537;28;20106;-74
2023/03/02 02:34:40;;;;;;;10.40;4.75;;;;;;;;;;4945752;28;20034;-74
2023/03/02 02:37:09;;;;;;;12.20;4.90;;;;;;;;;;4945975;28;20066;-73
2023/03/02 02:39:37;;;;;;;13.50;5.47;;;;;;;;;;4944765;28;20271;-73
2023/03/02 02:42:05;;;;;;;13.15;5.63;;;;;;;;;;4946819;28;20046;-73
2023/03/02 02:44:32;;;;;;;13.02;5.10;;;;;;;;;;4947031;28;20051;-73
2023/03/02 02:46:58;;;;;;;10.85;4.43;;;;;;;;;;4951355;28;20445;-73
2023/03/02 02:49:33;;;;;;;9.75;3.90;;;;;;;;;;4945080;28;20113;-74
2023/03/02 02:52:00;;;;;;;11.82;5.00;;;;;;;;;;4942056;28;20570;-73
2023/03/02 02:54:28;;;;;;;11.35;4.60;;;;;;;;;;4946252;28;20035;-72
2023/03/02 02:56:55;;;;;;;12.40;4.80;;;;;;;;;;4949921;28;20107;-72
2023/03/02 02:59:27;;;;;;;9.90;4.55;;;;;;;;;;4940671;28;20267;-73
2023/03/02 03:01:54;;;;;;;10.43;4.47;;;;;;;;;;4946821;28;20436;-73
2023/03/02 03:04:24;;;;;;;11.27;4.80;;;;;;;;;;4937890;28;20990;-73
2023/03/02 03:06:55;;;;;;;9.25;3.90;;;;;;;;;;4946682;28;20027;-72
2023/03/02 03:09:21;;;;;;;11.02;4.43;;;;;;;;;;4946396;28;20327;-73
2023/03/02 03:11:55;;;;;;;11.55;4.57;;;;;;;;;;4945025;28;20369;-73
2023/03/02 03:14:26;;;;;;;9.95;4.18;;;;;;;;;;4944880;28;20039;-73
2023/03/02 03:16:52;;;;;;;9.43;4.15;;;;;;;;;;4946515;28;20543;-73
2023/03/02 03:19:18;;;;;;;10.32;3.75;;;;;;;;;;4943457;28;20442;-73
2023/03/02 03:21:45;;;;;;;9.00;3.67;;;;;;;;;;4946013;28;20127;-73
2023/03/02 03:24:11;;;;;;;;;;;;;;;;;;4939814;28;20130;-73
2023/03/02 03:26:37;;;;;;;9.52;3.78;;;;;;;;;;4947617;28;19914;-73
2023/03/02 03:29:04;;;;;;;10.80;3.95;;;;;;;;;;4946144;28;20030;-73
2023/03/02 03:31:30;;;;;;;;;;;;;;;;;;4948908;28;20030;-73
2023/03/02 03:33:59;;;;;;;8.70;3.40;;;;;;;;;;4945366;28;19914;-73
2023/03/02 03:36:26;;;;;;;8.95;3.50;;;;;;;;;;4950739;28;20034;-74
2023/03/02 03:38:52;;;;;;;9.23;3.47;;;;;;;;;;4944974;28;20344;-73
2023/03/02 03:41:18;;;;;;;8.35;3.00;;;;;;;;;;4944637;28;20527;-74
2023/03/02 03:43:44;;;;;;;8.52;3.65;;;;;;;;;;4947270;28;20073;-73
2023/03/02 03:46:11;;;;;;;9.35;3.30;;;;;;;;;;4939882;28;20035;-73
2023/03/02 03:48:37;;;;;;;7.55;3.15;;;;;;;;;;4947108;28;20042;-72
2023/03/02 03:51:03;;;;;;;9.98;3.40;;;;;;;;;;4942938;28;20331;-73
2023/03/02 03:53:29;;;;;;;;;;;;;;;;;;4942463;28;20030;-73
2023/03/02 03:55:56;;;;;;;8.73;3.75;;;;;;;;;;4945341;28;20692;-73
2023/03/02 03:58:22;;;;;;;10.70;3.70;;;;;;;;;;4942482;28;20035;-73
2023/03/02 04:00:49;;;;;;;9.73;3.65;;;;;;;;;;4940097;28;20046;-74
2023/03/02 04:03:15;;;;;;;10.00;3.60;;;;;;;;;;4940928;28;20057;-73
2023/03/02 04:05:41;;;;;;;8.88;3.72;;;;;;;;;;4946548;28;20397;-73
2023/03/02 04:08:08;;;;;;;8.82;3.50;;;;;;;;;;4943254;28;20054;-73
2023/03/02 04:10:34;;;;;;;10.05;4.20;;;;;;;;;;4946341;28;20045;-73
2023/03/02 04:13:01;;;;;;;9.32;3.50;;;;;;;;;;4936407;28;20035;-73
2023/03/02 04:15:27;;;;;;;;;;;;;;;;;;4944238;28;20058;-73
2023/03/02 04:17:53;;;;;;;9.25;3.53;;;;;;;;;;4961798;28;20022;-73
2023/03/02 04:20:20;;;;;;;10.45;3.97;;;;;;;;;;4941036;28;20035;-73
2023/03/02 04:22:46;;;;;;;;;;;;;;;;;;4942634;28;20043;-73
2023/03/02 04:25:13;;;;;;;9.40;3.47;;;;;;;;;;4945508;28;19925;-73
2023/03/02 04:27:39;;;;;;;8.93;3.83;;;;;;;;;;4946748;28;20026;-73
2023/03/02 04:30:06;;;;;;;10.70;3.78;;;;;;;;;;4939695;28;20333;-73
2023/03/02 04:32:32;;;;;;;10.85;4.05;;;;;;;;;;4947368;28;20037;-73
2023/03/02 04:34:58;;;;;;;8.63;3.45;;;;;;;;;;4943545;28;20165;-73
2023/03/02 04:37:24;;;;;;;10.40;3.72;;;;;;;;;;4946265;28;20030;-73
2023/03/02 04:39:51;;;;;;;8.30;3.67;;;;;;;;;;4943043;28;20026;-73
2023/03/02 04:42:18;;;;;;;10.15;3.53;;;;;;;;;;4941894;28;20213;-73
2023/03/02 04:44:44;;;;;;;10.02;3.90;;;;;;;;;;4942148;28;20137;-73
2023/03/02 04:47:11;;;;;;;9.88;3.38;;;;;;;;;;4944495;28;20043;-73
2023/03/02 04:49:37;;;;;;;;;;;;;;;;;;4945984;28;20097;-73
2023/03/02 04:52:03;;;;;;;9.00;3.28;;;;;;;;;;4945565;28;20384;-73
2023/03/02 04:54:29;;;;;;;10.38;3.58;;;;;;;;;;4945397;28;20034;-73
2023/03/02 04:56:56;;;;;;;8.85;3.50;;;;;;;;;;4940836;28;20045;-73
2023/03/02 04:59:24;;;;;;;8.63;3.60;;;;;;;;;;4945665;28;20630;-73
2023/03/02 05:01:52;;;;;;;9.82;4.00;;;;;;;;;;4949775;28;20035;-73
2023/03/02 05:04:18;;;;;;;9.57;3.65;;;;;;;;;;4947803;28;20030;-73
2023/03/02 05:06:44;;;;;;;8.57;3.58;;;;;;;;;;4955864;28;20507;-74
2023/03/02 05:09:11;;;;;;;9.98;4.60;;;;;;;;;;4955462;28;20213;-73
2023/03/02 05:11:37;;;;;;;7.85;3.38;;;;;;;;;;4973954;28;20042;-73
2023/03/02 05:14:05;;;;;;;7.40;3.30;;;;;;;;;;4973820;28;20035;-73
2023/03/02 05:16:32;;;;;;;8.80;3.25;;;;;;;;;;4970745;28;20031;-73
2023/03/02 05:18:58;;;;;;;9.23;3.70;;;;;;;;;;4966800;28;20042;-73
2023/03/02 05:21:24;;;;;;;9.38;3.58;;;;;;;;;;4956540;28;20328;-73
2023/03/02 05:23:51;;;;;;;8.35;3.00;;;;;;;;;;4951825;28;20030;-73
2023/03/02 05:26:17;;;;;;;;;;;;;;;;;;4952472;28;20415;-73
2023/03/02 05:28:43;;;;;;;11.75;3.85;;;;;;;;;;4954721;28;19925;-73
2023/03/02 05:31:14;;;;;;;8.60;3.75;;;;;;;;;;4955590;28;20764;-73
2023/03/02 05:33:40;;;;;;;7.97;3.35;;;;;;;;;;4952404;28;20039;-73
2023/03/02 05:36:06;;;;;;;10.30;4.30;;;;;;;;;;4943221;28;20019;-74
2023/03/02 05:38:33;;;;;;;8.05;3.55;;;;;;;;;;4947124;28;20443;-73
2023/03/02 05:40:59;;;;;;;7.95;3.55;;;;;;;;;;4947328;28;20026;-73
2023/03/02 05:43:25;;;;;;;7.90;3.42;;;;;;;;;;4947948;28;20443;-73
2023/03/02 05:45:52;;;;;;;10.25;4.00;;;;;;;;;;4944671;28;20538;-73
2023/03/02 05:48:18;;;;;;;9.30;3.78;;;;;;;;;;4942354;28;20041;-72
2023/03/02 05:50:44;;;;;;;9.20;3.45;;;;;;;;;;4943829;28;20349;-73
2023/03/02 05:53:10;;;;;;;9.20;3.63;;;;;;;;;;4944192;28;20727;-73
2023/03/02 05:55:36;;;;;;;9.63;4.03;;;;;;;;;;4942717;28;20035;-71
2023/03/02 05:58:07;;;;;;;8.82;3.90;;;;;;;;;;4955322;28;20034;-71
2023/03/02 06:00:34;;;;;;;14.30;4.65;;;;;;;;;;4955867;28;20504;-71
2023/03/02 06:03:00;;;;;;;12.23;6.05;;;;;;;;;;4955900;28;21726;-72
2023/03/02 06:05:26;;;;;;;11.52;5.65;;;;;;;;;;4953975;28;20474;-71
2023/03/02 06:07:52;;;;;;;10.05;5.60;;;;;;;;;;4958002;28;20714;-71
2023/03/02 06:10:19;;;;;;;13.00;5.47;;;;;;;;;;4945452;28;20100;-70
2023/03/02 06:12:45;;;;;;;11.18;4.82;;;;;;;;;;4942992;28;20093;-70
2023/03/02 06:15:11;;;;;;;10.65;5.50;;;;;;;;;;4943641;28;20045;-72
2023/03/02 06:17:37;;;;;;;11.48;5.10;;;;;;;;;;4944750;28;20085;-72
2023/03/02 06:20:09;;;;;;;13.18;4.90;;;;;;;;;;4940823;28;20027;-70
2023/03/02 06:22:37;;;;;;;11.85;4.97;;;;;;;;;;4946374;28;20345;-72
2023/03/02 06:25:03;;;;;;;10.98;5.03;;;;;;;;;;4944597;28;20030;-70
2023/03/02 06:27:29;;;;;;;10.20;5.13;;;;;;;;;;4943411;28;20041;-70
2023/03/02 06:29:55;;;;;;;11.25;4.72;;;;;;;;;;4939283;28;20038;-72
2023/03/02 06:32:22;;;;;;;12.60;5.10;;;;;;;;;;4944065;28;20349;-72
2023/03/02 06:34:48;;;;;;;11.05;5.18;;;;;;;;;;4944495;28;20541;-72
2023/03/02 06:37:14;;;;;;;11.18;5.45;;;;;;;;;;4940589;28;20039;-72
2023/03/02 06:39:40;;;;;;;12.40;5.65;;;;;;;;;;4941726;28;20403;-72
2023/03/02 06:42:06;;;;;;;11.93;6.25;;;;;;;;;;4939507;28;20039;-72
2023/03/02 06:44:32;;;;;;;14.98;6.93;;;;;;;;;;4941511;28;20367;-72
2023/03/02 06:46:59;;;;;;;11.15;6.22;;;;;;;;;;4944369;28;20023;-72
2023/03/02 06:49:25;;;;;;;12.48;6.80;;;;;;;;;;4938211;28;20291;-72
2023/03/02 06:51:51;;;;;;;11.95;6.15;;;;;;;;;;4939421;28;20088;-72
2023/03/02 06:54:17;;;;;;;10.55;4.90;;;;;;;;;;4937830;28;20153;-71
2023/03/02 06:56:43;;;;;;;12.93;5.47;;;;;;;;;;4943833;28;20141;-71
2023/03/02 06:59:09;;;;;;;9.80;5.38;;;;;;;;;;4936011;28;20470;-71
2023/03/02 07:01:36;;;;;;;11.90;5.82;;;;;;;;;;4945499;28;20130;-73
2023/03/02 07:04:02;;;;;;;11.90;5.65;;;;;;;;;;4935233;28;20537;-71
2023/03/02 07:06:28;;;;;;;12.65;7.22;;;;;;;;;;4946377;28;20049;-71
2023/03/02 07:08:54;;;;;;;16.00;9.98;;;;;;;;;;4942432;28;20437;-71
2023/03/02 07:11:21;;;;;;;22.42;13.00;;;;;;;;;;4942993;28;20114;-71
2023/03/02 07:13:47;;;;;;;16.45;8.35;;;;;;;;;;4942817;28;20034;-71
2023/03/02 07:16:14;;;;;;;18.92;11.55;;;;;;;;;;4938977;28;20167;-71
2023/03/02 07:18:40;;;;;;;16.70;10.05;;;;;;;;;;4939808;28;20118;-71
2023/03/02 07:21:06;;;;;;;14.77;8.40;;;;;;;;;;4938576;28;20046;-71
2023/03/02 07:23:33;;;;;;;20.58;11.40;;;;;;;;;;4939736;28;20034;-71
2023/03/02 07:26:00;;;;;;;17.08;9.95;;;;;;;;;;4943683;28;20348;-71
2023/03/02 07:28:26;;;;;;;24.38;15.65;;;;;;;;;;4943877;28;20050;-71
2023/03/02 07:30:53;;;;;;;17.95;10.43;;;;;;;;;;4941048;28;20023;-71
2023/03/02 07:33:19;;;;;;;16.38;8.43;;;;;;;;;;4940083;28;20030;-71
2023/03/02 07:35:46;;;;;;;12.60;7.10;;;;;;;;;;4942419;28;20575;-73
2023/03/02 07:38:12;;;;;;;13.65;5.78;;;;;;;;;;4939290;28;20117;-71
2023/03/02 07:40:42;;;;;;;24.67;14.88;;;;;;;;;;4944671;28;20085;-71
2023/03/02 07:43:08;;;;;;;10.82;5.40;;;;;;;;;;4943320;28;20401;-70
2023/03/02 07:45:35;;;;;;;15.50;5.38;;;;;;;;;;4942381;28;20065;-71
2023/03/02 07:48:01;;;;;;;16.30;7.60;;;;;;;;;;4939730;28;20023;-72
2023/03/02 07:50:27;;;;;;;13.85;6.03;;;;;;;;;;4945860;28;20047;-71
2023/03/02 07:52:53;;;;;;;17.05;8.38;;;;;;;;;;4940779;28;20048;-70
2023/03/02 07:55:19;;;;;;;17.75;10.77;;;;;;;;;;4936903;28;20053;-74
2023/03/02 07:57:46;;;;;;;17.48;8.82;;;;;;;;;;4936623;28;20063;-69
2023/03/02 08:00:12;;;;;;;19.63;11.35;;;;;;;;;;4940880;28;20373;-72
2023/03/02 08:02:39;;;;;;;17.45;8.57;;;;;;;;;;4942595;28;20031;-73
2023/03/02 08:05:05;;;;;;;16.73;7.97;;;;;;;;;;4937964;28;20030;-72
2023/03/02 08:07:32;;;;;;;18.52;8.50;;;;;;;;;;4941862;28;20339;-72
2023/03/02 08:09:59;;;;;;;15.35;7.70;;;;;;;;;;4942212;28;20141;-72
2023/03/02 08:12:26;;;;;;;18.60;9.82;;;;;;;;;;4941642;28;20027;-72
2023/03/02 08:14:52;;;;;;;19.50;10.98;;;;;;;;;;4955786;28;20141;-72
2023/03/02 08:17:19;;;;;;;11.10;5.30;;;;;;;;;;4940511;28;20137;-73
2023/03/02 08:19:45;;;;;;;14.70;6.38;;;;;;;;;;4947354;28;20042;-72
2023/03/02 08:22:11;;;;;;;14.98;6.10;;;;;;;;;;4945639;28;20030;-72
2023/03/02 08:24:40;;;;;;;11.07;5.35;;;;;;;;;;4940920;28;20256;-72
2023/03/02 08:27:07;;;;;;;13.07;5.82;;;;;;;;;;4939863;28;20416;-72
2023/03/02 08:29:33;;;;;;;12.27;6.03;;;;;;;;;;4943053;28;20035;-72
2023/03/02 08:31:59;;;;;;;15.73;6.63;;;;;;;;;;4942209;28;20033;-72
2023/03/02 08:34:26;;;;;;;11.95;5.32;;;;;;;;;;4945292;28;20034;-72
2023/03/02 08:36:52;;;;;;;;;;;;;;;;;;4948944;28;20034;-72
2023/03/02 08:39:20;;;;;;;14.02;6.70;;;;;;;;;;4940620;28;19960;-72
2023/03/02 08:41:49;;;;;;;13.43;6.93;;;;;;;;;;4943163;28;20207;-72
2023/03/02 08:44:16;;;;;;;12.98;6.57;;;;;;;;;;4943821;28;20258;-71
2023/03/02 08:46:42;;;;;;;12.98;5.97;;;;;;;;;;4947162;28;20400;-72
2023/03/02 08:49:08;;;;;;;11.23;5.88;;;;;;;;;;4943632;28;20043;-71
2023/03/02 08:51:34;;;;;;;11.68;5.78;;;;;;;;;;4942612;28;20157;-71
2023/03/02 08:54:01;;;;;;;13.10;6.10;;;;;;;;;;4944049;28;20038;-71
2023/03/02 08:56:34;;;;;;;17.85;6.93;;;;;;;;;;4945530;28;20481;-72
2023/03/02 08:59:03;;;;;;;20.88;6.63;;;;;;;;;;4944144;28;20129;-72
2023/03/02 09:01:31;;;;;;;13.88;6.03;;;;;;;;;;4944473;28;20429;-71
2023/03/02 09:04:01;;;;;;;14.65;5.40;;;;;;;;;;4945408;28;20034;-71
2023/03/02 09:06:28;;;;;;;10.02;4.47;;;;;;;;;;4944932;28;20073;-72
2023/03/02 09:08:55;;;;;;;13.23;4.50;;;;;;;;;;4944343;28;20539;-71
2023/03/02 09:11:21;;;;;;;9.93;4.10;;;;;;;;;;4941807;28;20035;-72
2023/03/02 09:13:47;;;;;;;9.65;3.95;;;;;;;;;;4942807;28;20480;-71
2023/03/02 09:16:14;;;;;;;11.40;3.20;;;;;;;;;;4945615;28;20034;-71
2023/03/02 09:18:40;;;;;;;10.45;3.47;;;;;;;;;;4944794;28;20393;-71
2023/03/02 09:21:07;;;;;;;10.57;3.92;;;;;;;;;;4942399;28;20113;-71
2023/03/02 09:23:35;;;;;;;9.00;3.30;;;;;;;;;;4942066;28;20436;-72
2023/03/02 09:26:01;;;;;;;12.05;4.45;;;;;;;;;;4943273;28;20039;-73
2023/03/02 09:28:27;;;;;;;;;;;;;;;;;;4945929;28;20031;-71
2023/03/02 09:30:56;;;;;;;11.05;4.00;;;;;;;;;;4945960;28;20418;-72
2023/03/02 09:33:22;;;;;;;10.50;4.22;;;;;;;;;;4943953;28;20610;-71
2023/03/02 09:35:49;;;;;;;7.53;3.00;;;;;;;;;;4946414;28;20820;-72
2023/03/02 09:38:16;;;;;;;8.65;3.03;;;;;;;;;;4939763;28;20034;-72
2023/03/02 09:41:01;;;;;;;12.45;3.17;;;;;;;;;;4944057;28;20134;-72
2023/03/02 09:43:27;;;;;;;9.10;3.20;;;;;;;;;;4945720;28;20327;-72
2023/03/02 09:46:00;;;;;;;11.10;3.90;;;;;;;;;;4942948;28;20340;-72
2023/03/02 09:48:37;;;;;;;11.25;4.38;;;;;;;;;;4947349;28;20031;-72
2023/03/02 09:51:22;;;;;;;13.27;4.70;;;;;;;;;;4940051;28;20035;-71
2023/03/02 09:54:08;;;;;;;15.35;4.88;;;;;;;;;;4947237;28;20345;-71
2023/03/02 09:56:41;;;;;;;14.52;5.53;;;;;;;;;;4946897;28;20425;-71
2023/03/02 09:59:13;;;;;;;11.52;4.03;;;;;;;;;;4938679;28;20027;-71
2023/03/02 10:01:43;;;;;;;10.48;4.53;;;;;;;;;;4947343;28;20035;-71
2023/03/02 10:04:13;;;;;;;12.38;3.90;;;;;;;;;;4942563;28;20122;-70
2023/03/02 10:06:39;;;;;;;8.77;3.38;;;;;;;;;;4943868;28;20045;-72
2023/03/02 10:09:05;;;;;;;9.10;3.38;;;;;;;;;;4942062;28;20086;-71
2023/03/02 10:12:00;;;;;;;9.57;2.90;;;;;;;;;;4941536;28;20399;-71
2023/03/02 10:14:30;;;;;;;11.52;2.90;;;;;;;;;;4946390;28;20030;-73
2023/03/02 10:16:59;;;;;;;8.15;2.80;;;;;;;;;;4943114;28;20031;-71
2023/03/02 10:19:31;;;;;;;10.93;2.83;;;;;;;;;;4940586;28;20342;-71
2023/03/02 10:22:03;;;;;;;9.82;2.67;;;;;;;;;;4939318;28;20310;-70
2023/03/02 10:24:29;;;;;;;9.60;3.13;;;;;;;;;;4945220;28;20811;-72
2023/03/02 10:26:55;;;;;;;;;;;;;;;;;;4944304;28;20035;-72
2023/03/02 10:29:35;;;;;;;14.02;4.05;;;;;;;;;;4938032;28;19918;-72
2023/03/02 10:32:05;;;;;;;10.27;3.95;;;;;;;;;;4942193;28;20105;-72
2023/03/02 10:34:34;;;;;;;11.82;4.45;;;;;;;;;;4942347;28;20040;-72
2023/03/02 10:37:01;;;;;;;9.93;3.97;;;;;;;;;;4945080;28;20097;-72
2023/03/02 10:39:27;;;;;;;8.93;3.70;;;;;;;;;;4943553;28;20393;-72
2023/03/02 10:42:02;;;;;;;10.70;3.60;;;;;;;;;;4946030;28;20066;-73
2023/03/02 10:44:31;;;;;;;9.80;3.20;;;;;;;;;;4942338;28;20121;-72
2023/03/02 10:46:58;;;;;;;11.10;3.28;;;;;;;;;;4944656;28;20504;-72
2023/03/02 10:49:29;;;;;;;11.02;3.28;;;;;;;;;;4940988;28;20027;-73
2023/03/02 10:51:56;;;;;;;11.90;3.28;;;;;;;;;;4943068;28;20035;-72
2023/03/02 10:54:24;;;;;;;8.90;3.67;;;;;;;;;;4938569;28;20292;-73
2023/03/02 10:56:52;;;;;;;14.20;4.20;;;;;;;;;;4943776;28;20101;-71
2023/03/02 10:59:18;;;;;;;11.90;3.58;;;;;;;;;;4941953;28;20042;-71
2023/03/02 11:01:44;;;;;;;12.00;4.70;;;;;;;;;;4942006;28;20034;-71
2023/03/02 11:04:14;;;;;;;10.68;4.70;;;;;;;;;;4942561;28;20274;-71
2023/03/02 11:06:41;;;;;;;13.27;4.63;;;;;;;;;;4945768;28;20394;-71
2023/03/02 11:09:07;;;;;;;12.45;4.95;;;;;;;;;;4938024;28;20051;-70
2023/03/02 11:11:33;;;;;;;13.10;4.43;;;;;;;;;;4944570;28;20079;-70
2023/03/02 11:14:13;;;;;;;14.20;5.10;;;;;;;;;;4941662;28;20031;-70
2023/03/02 11:16:39;;;;;;;11.80;4.88;;;;;;;;;;4940335;28;20364;-71
2023/03/02 11:19:10;;;;;;;16.90;5.60;;;;;;;;;;4942249;28;20027;-70
2023/03/02 11:21:49;;;;;;;13.63;5.28;;;;;;;;;;4940517;28;20707;-70
2023/03/02 11:24:22;;;;;;;12.43;5.13;;;;;;;;;;4942119;28;20548;-71
2023/03/02 11:26:50;;;;;;;14.27;4.47;;;;;;;;;;4939916;28;20043;-70
2023/03/02 11:29:26;;;;;;;13.48;4.60;;;;;;;;;;4941908;28;20042;-70
2023/03/02 11:32:01;;;;;;;11.67;4.57;;;;;;;;;;4943281;28;20039;-70
2023/03/02 11:34:27;;;;;;;14.55;4.45;;;;;;;;;;4939897;28;20160;-70
2023/03/02 11:36:53;;;;;;;12.88;4.32;;;;;;;;;;4939070;28;20507;-70
2023/03/02 11:39:23;;;;;;;13.35;4.53;;;;;;;;;;4937555;28;20035;-72
2023/03/02 11:41:49;;;;;;;12.10;5.00;;;;;;;;;;4938294;28;20110;-70
2023/03/02 11:44:17;;;;;;;13.73;4.90;;;;;;;;;;4938765;28;20051;-73
2023/03/02 11:46:51;;;;;;;12.55;4.47;;;;;;;;;;4942267;28;20062;-74
2023/03/02 11:49:21;;;;;;;13.55;4.90;;;;;;;;;;4941112;28;20145;-74
2023/03/02 11:51:56;;;;;;;15.93;4.75;;;;;;;;;;4937739;28;20038;-73
2023/03/02 11:54:27;;;;;;;13.13;5.20;;;;;;;;;;4938127;28;20232;-74
2023/03/02 11:56:54;;;;;;;16.63;5.90;;;;;;;;;;4939246;28;20027;-73
2023/03/02 11:59:21;;;;;;;19.50;6.57;;;;;;;;;;4942800;28;24878;-73
2023/03/02 12:01:49;;;;;;;22.45;6.53;;;;;;;;;;4941782;28;20027;-73
2023/03/02 12:04:31;;;;;;;15.25;6.45;;;;;;;;;;4934655;28;20027;-74
2023/03/02 12:06:57;;;;;;;17.42;6.72;;;;;;;;;;4938448;28;20027;-73
2023/03/02 12:09:24;;;;;;;25.10;7.10;;;;;;;;;;4937412;28;20155;-73
2023/03/02 12:12:16;;;;;;;17.73;7.78;;;;;;;;;;4938987;28;20035;-73
2023/03/02 12:14:42;;;;;;;16.77;6.75;;;;;;;;;;4934777;28;20552;-73
2023/03/02 12:17:08;;;;;;;;;;;;;;;;;;4938409;28;20035;-73
2023/03/02 12:19:42;;;;;;;16.17;6.38;;;;;;;;;;4942633;28;19918;-73
2023/03/02 12:22:11;;;;;;;17.27;7.10;;;;;;;;;;4940550;28;20031;-73
2023/03/02 12:24:38;;;;;;;21.88;7.32;;;;;;;;;;4940913;28;20579;-73
2023/03/02 12:27:24;;;;;;;15.23;7.18;;;;;;;;;;4934341;28;20069;-68
2023/03/02 12:29:55;;;;;;;15.35;7.13;;;;;;;;;;4942857;28;20031;-67
2023/03/02 12:32:23;;;;;;;14.65;6.57;;;;;;;;;;4936045;28;20054;-67
2023/03/02 12:34:55;;;;;;;15.40;6.45;;;;;;;;;;4940130;28;20061;-67
2023/03/02 12:37:27;;;;;;;16.48;6.45;;;;;;;;;;4937037;28;20251;-67
2023/03/02 12:39:56;;;;;;;15.75;6.45;;;;;;;;;;4938659;28;20125;-67
2023/03/02 12:42:41;;;;;;;15.82;6.75;;;;;;;;;;4938272;28;20041;-66
2023/03/02 12:45:30;;;;;;;13.00;5.38;;;;;;;;;;4940233;28;20047;-67
2023/03/02 12:48:01;;;;;;;18.48;7.47;;;;;;;;;;4863547;29;20048;-67
2023/03/02 12:50:29;;;;;;;19.35;6.65;;;;;;;;;;4859139;29;20136;-66
2023/03/02 12:53:00;;;;;;;16.45;5.72;;;;;;;;;;4863586;29;20252;-66
2023/03/02 12:55:26;;;;;;;15.75;6.13;;;;;;;;;;4865025;29;20147;-66
2023/03/02 12:57:54;;;;;;;16.52;5.90;;;;;;;;;;4860192;29;20115;-67
2023/03/02 13:00:22;;;;;;;15.75;6.00;;;;;;;;;;4842792;29;20049;-66
2023/03/02 13:02:49;;;;;;;15.63;6.50;;;;;;;;;;4862327;29;20692;-67
2023/03/02 13:05:24;;;;;;;14.57;5.65;;;;;;;;;;4860331;29;20123;-69
2023/03/02 13:07:52;;;;;;;14.98;6.35;;;;;;;;;;4876653;29;20558;-68
2023/03/02 13:10:26;;;;;;;16.50;6.00;;;;;;;;;;4858977;29;20335;-68
2023/03/02 13:12:52;;;;;;;19.13;6.32;;;;;;;;;;4863810;29;20056;-67
2023/03/02 13:15:18;;;;;;;;;;;;;;;;;;4860466;29;20088;-68
2023/03/02 13:17:51;;;;;;;16.38;6.22;;;;;;;;;;4844487;29;19926;-68
2023/03/02 13:20:18;;;;;;;16.05;6.82;;;;;;;;;;4874902;29;20124;-68
2023/03/02 13:22:44;;;;;;;13.57;6.57;;;;;;;;;;4863138;29;20033;-68
2023/03/02 13:25:11;;;;;;;;;;;;;;;;;;4908101;28;20697;-68
2023/03/02 13:27:37;;;;;;;16.25;6.25;;;;;;;;;;4939013;28;20330;-68
2023/03/02 13:30:03;;;;;;;;;;;;;;;;;;4937236;28;20354;-68
2023/03/02 13:32:38;;;;;;;15.82;6.53;;;;;;;;;;4941275;28;19914;-68
2023/03/02 13:35:15;;;;;;;14.95;6.47;;;;;;;;;;4938645;28;20500;-67
2023/03/02 13:37:42;;;;;;;;;;;;;;;;;;4941190;28;20710;-68
2023/03/02 13:40:21;;;;;;;18.10;9.32;;;;;;;;;;4937264;28;19946;-68
2023/03/02 13:42:47;;;;;;;19.30;8.27;;;;;;;;;;4938925;28;20031;-68
2023/03/02 13:45:13;;;;;;;;;;;;;;;;;;4938526;28;20375;-68
2023/03/02 13:47:42;;;;;;;17.33;7.45;;;;;;;;;;4935894;28;20344;-68
2023/03/02 13:50:09;;;;;;;16.85;8.32;;;;;;;;;;4933614;28;20031;-68
2023/03/02 13:52:35;;;;;;;15.98;8.63;;;;;;;;;;4937115;28;20054;-68
2023/03/02 13:55:01;;;;;;;16.10;7.32;;;;;;;;;;4938093;28;20082;-66
2023/03/02 13:57:27;;;;;;;;;;;;;;;;;;4935017;28;20031;-66
2023/03/02 13:59:53;;;;;;;16.85;7.88;;;;;;;;;;4940190;28;19973;-68
2023/03/02 14:02:29;;;;;;;16.75;7.57;;;;;;;;;;4935018;28;20387;-68
2023/03/02 14:04:56;;;;;;;16.93;7.53;;;;;;;;;;4942595;28;20034;-67
2023/03/02 14:07:22;;;;;;;14.68;7.03;;;;;;;;;;4937746;28;20264;-67
2023/03/02 14:09:48;;;;;;;;;;;;;;;;;;4938895;28;20355;-67
2023/03/02 14:12:33;;;;;;;15.05;6.65;;;;;;;;;;4936463;28;20372;-67
2023/03/02 14:15:01;;;;;;;14.73;6.57;;;;;;;;;;4934540;28;20350;-67
2023/03/02 14:17:27;;;;;;;14.43;6.32;;;;;;;;;;4936893;28;20034;-67
2023/03/02 14:19:54;;;;;;;14.93;6.20;;;;;;;;;;4934203;28;20046;-67
2023/03/02 14:22:21;;;;;;;15.45;5.82;;;;;;;;;;4936369;28;20034;-68
2023/03/02 14:24:47;;;;;;;13.50;5.72;;;;;;;;;;4934494;28;20123;-67
2023/03/02 14:27:13;;;;;;;;;;;;;;;;;;4934008;28;20043;-68
2023/03/02 14:29:39;;;;;;;14.07;6.57;;;;;;;;;;4936444;28;19921;-68
2023/03/02 14:32:06;;;;;;;13.75;6.63;;;;;;;;;;4932513;28;20063;-68
2023/03/02 14:34:32;;;;;;;;;;;;;;;;;;4935459;28;20096;-68
2023/03/02 14:36:59;;;;;;;15.55;7.20;;;;;;;;;;4934704;28;19918;-68
2023/03/02 14:39:25;;;;;;;15.70;7.60;;;;;;;;;;4932642;28;20035;-68
2023/03/02 14:41:52;;;;;;;26.48;9.00;;;;;;;;;;4929067;28;20038;-68
2023/03/02 14:44:18;;;;;;;19.15;8.95;;;;;;;;;;4934314;28;20454;-68